createdAt,value
2023-02-25T00:13:18.275Z,0.12
2023-02-25T00:27:26.043Z,0.01
2023-02-25T00:42:26.257Z,0
2023-02-25T00:57:25.571Z,0.02
2023-02-25T01:12:25.719Z,0.01
2023-02-25T01:27:26.027Z,0.26
2023-02-25T01:42:25.352Z,0.21
2023-02-25T01:57:25.405Z,0.1
2023-02-25T02:12:26.259Z,0.05
2023-02-25T02:57:25.875Z,0.02
2023-02-25T03:12:26.971Z,0.01
2023-02-25T03:27:25.671Z,0
2023-02-25T03:42:25.771Z,0.44
2023-02-25T03:57:25.985Z,0.06
2023-02-25T04:12:26.323Z,0
2023-02-25T04:27:26.173Z,11.08
2023-02-25T04:57:26.147Z,26.76
2023-02-25T05:12:25.752Z,20.92
2023-02-25T05:27:25.554Z,13.99
2023-02-25T05:42:25.917Z,5.32
2023-02-25T05:57:25.482Z,3.99
2023-02-25T06:12:26.151Z,3.2
2023-02-25T06:27:25.671Z,1.17
2023-02-25T06:42:26.132Z,1.48
2023-02-25T06:57:25.599Z,2.44
2023-02-25T07:12:26.103Z,4.08
2023-02-25T07:27:25.655Z,4.87
2023-02-25T07:42:26.001Z,5.22
2023-02-25T07:57:26.199Z,5.87
2023-02-25T08:12:25.458Z,5.54
2023-02-25T08:27:26.089Z,26.38
2023-02-25T08:42:25.568Z,13.02
2023-02-25T08:57:26.166Z,8.74
2023-02-25T09:27:26.144Z,25.53
2023-02-25T09:42:25.680Z,61.86
2023-02-25T09:57:26.045Z,32.58
2023-02-25T10:27:26.298Z,33.6
2023-02-25T10:42:26.043Z,14.75
2023-02-25T10:57:25.969Z,12.14
2023-02-25T11:12:25.570Z,25.96
2023-02-25T11:27:26.600Z,27.21
2023-02-25T11:42:25.568Z,12.97
2023-02-25T11:57:26.196Z,9.34
2023-02-25T12:12:25.815Z,7.76
2023-02-25T12:27:26.032Z,10.1
2023-02-25T12:42:26.179Z,5.63
2023-02-25T12:57:25.654Z,5.67
2023-02-25T13:12:25.726Z,4.87
2023-02-25T13:27:25.402Z,6.19
2023-02-25T13:42:25.759Z,5.4
2023-02-25T13:57:25.595Z,10.31
2023-02-25T14:12:25.880Z,12.06
2023-02-25T14:27:25.779Z,8.59
2023-02-25T14:42:25.584Z,6.25
2023-02-25T14:57:25.895Z,9.84
2023-02-25T15:12:25.374Z,17.4
2023-02-25T15:27:26.301Z,10.11
2023-02-25T15:42:26.167Z,9.56
2023-02-25T15:57:26.835Z,15.71
2023-02-25T16:12:26.260Z,9.56
2023-02-25T16:27:25.595Z,11.32
2023-02-25T16:42:27.499Z,7.77
2023-02-25T16:57:25.685Z,8.4
2023-02-25T17:12:25.929Z,13.25
2023-02-25T17:27:26.128Z,8.44
2023-02-25T17:42:25.864Z,24.47
2023-02-25T17:57:25.689Z,9.98
2023-02-25T18:12:26.084Z,8.14
2023-02-25T18:27:26.054Z,7.96
2023-02-25T18:42:25.248Z,8.43
2023-02-25T18:57:25.354Z,8.25
2023-02-25T19:12:25.770Z,5.53
2023-02-25T19:27:25.233Z,5.66
2023-02-25T19:42:26.122Z,5.07
2023-02-25T19:57:26.276Z,4.05
2023-02-25T20:12:26.273Z,4.91
2023-02-25T20:27:25.780Z,8.38
2023-02-25T20:42:25.885Z,3.94
2023-02-25T20:57:25.698Z,4.4
2023-02-25T21:27:25.386Z,7.71
2023-02-25T21:42:25.303Z,8.02
2023-02-25T21:57:26.125Z,6.61
2023-02-25T22:12:25.857Z,5.23
2023-02-25T22:27:25.236Z,8.26
2023-02-25T22:42:26.015Z,3.34
2023-02-25T22:57:26.110Z,2.82
2023-02-25T23:12:30.962Z,5.26
2023-02-25T23:27:26.083Z,7.51
2023-02-25T23:42:25.743Z,4.99
2023-02-25T23:57:25.245Z,1.84
